Max Planck — ELZY8 — position and weather

sailwx.info

Track history (hours):
 
Tides and Currents Weather Stations Pressure Air Temp Water Temp Dewpoint Dewpoint Depression Visibility Wind Speed Wind Dir Waves Ship Positions

Max Planck

Last reported at 2015-May-20 15:33 UTC. Time now 2015-May-25 01:29 UTC.
Position N 22°53' E 119°55'.

Length 99.9 m; beam 16.2 m; draft 6.8 m.

Type: Tanker. MMSI: 636091773.

Date/timePositionNaut miles runAvg speedWind from/ knotsBaromVisibWave heightAir tempDewpointWater temp
2015-May-20 15:33N 22°53' E 119°55'9 9.1
2015-May-20 14:32N 22°47' E 120°02'9 8.8
2015-May-20 13:33N 22°41' E 120°09'9 7.6
2015-May-20 12:23N 22°36' E 120°17'1 1.5
2015-May-20 11:33N 22°35' E 120°18'0 0.0
2015-May-19 19:28N 22°35' E 120°18'4 4.6
2015-May-19 18:33N 22°36' E 120°13'1 0.5
2015-May-19 17:30N 22°36' E 120°14'0 0.0
2015-May-19 16:30N 22°36' E 120°14'0 0.0
2015-May-19 15:30N 22°36' E 120°14'0 0.0
2015-May-19 14:30N 22°36' E 120°14'0 0.1
2015-May-19 13:30N 22°36' E 120°14'0 0.0
2015-May-19 12:30N 22°36' E 120°14'0 0.0
2015-May-19 11:33N 22°36' E 120°14'3 3.2
2015-May-19 10:33N 22°38' E 120°11'1312.7
2015-May-19 09:33N 22°47' E 120°02'  
2015-May-14 03:08N 34°51' E 139°19'6 9.2
2015-May-14 02:31N 34°54' E 139°24'9 9.3
2015-May-14 01:33N 34°60' E 139°33'1010.3
2015-May-14 00:33N 35°05' E 139°44'1110.7
2015-May-13 23:33N 35°16' E 139°46'1010.1
2015-May-13 22:33N 35°26' E 139°44'6 5.7
2015-May-13 21:33N 35°31' E 139°46'0 0.0
2015-May-13 20:27N 35°31' E 139°46'0 0.0
2015-May-13 19:33N 35°31' E 139°46'0 0.0
2015-May-13 18:33N 35°31' E 139°46'0 0.0
2015-May-13 17:33N 35°31' E 139°46'0 0.0
2015-May-13 16:33N 35°31' E 139°46'0 0.0
2015-May-13 15:33N 35°31' E 139°46'0 0.0
2015-May-13 14:33N 35°31' E 139°46'0 0.0
2015-May-13 01:04N 35°31' E 139°46'1 1.6
2015-May-13 00:34N 35°30' E 139°45'3 2.8
2015-May-12 23:31N 35°28' E 139°44'0 0.1
2015-May-12 22:33N 35°28' E 139°44'0 0.0
2015-May-12 21:33N 35°28' E 139°44'0 0.0
2015-May-12 20:34N 35°28' E 139°44'0 0.2
2015-May-12 19:33N 35°28' E 139°44'0 0.2
2015-May-12 18:34N 35°28' E 139°44'0 0.2
2015-May-12 17:33N 35°28' E 139°44'2 2.4
2015-May-12 16:33N 35°28' E 139°47'1 1.2
2015-May-12 15:33N 35°27' E 139°46'2 1.5
2015-May-12 14:33N 35°28' E 139°44'0 0.1
2015-May-12 13:33N 35°28' E 139°44'0 0.0
2015-May-12 12:33N 35°28' E 139°44'0 0.0
2015-May-12 11:34N 35°28' E 139°44'0 0.0
2015-May-12 10:33N 35°28' E 139°44'0 0.0
2015-May-12 09:33N 35°28' E 139°44'0 0.0
2015-May-12 08:33N 35°28' E 139°44'0 0.0
2015-May-12 07:33N 35°28' E 139°44'0 0.0
2015-May-12 06:33N 35°28' E 139°44'0 0.0
2015-May-12 05:33N 35°28' E 139°44'0 0.0
2015-May-12 04:33N 35°28' E 139°44'0 0.0
2015-May-12 03:33N 35°28' E 139°44'0 0.0
2015-May-12 02:33N 35°28' E 139°44'0 0.0
2015-May-12 01:33N 35°28' E 139°44'0 0.0
2015-May-12 00:31N 35°28' E 139°44'0 0.0
2015-May-11 23:33N 35°28' E 139°44'2 2.2
2015-May-11 22:33N 35°27' E 139°46'1110.7
2015-May-11 21:33N 35°16' E 139°46'8 8.0
2015-May-11 20:33N 35°08' E 139°46'6 5.7
2015-May-11 19:33N 35°03' E 139°43'6 5.7
2015-May-11 18:33N 34°58' E 139°41'6 5.5
2015-May-11 17:30N 34°52' E 139°38'5 5.4
2015-May-11 16:32N 34°47' E 139°36'  
Track history (hours):
 
Tides and Currents Weather Stations Pressure Air Temp Water Temp Dewpoint Dewpoint Depression Visibility Wind Speed Wind Dir Waves Ship Positions

Max Planck

Last reported at 2015-May-20 15:33 UTC. Time now 2015-May-25 01:29 UTC.
Position N 22°53' E 119°55'.

Length 99.9 m; beam 16.2 m; draft 6.8 m.

Type: Tanker. MMSI: 636091773.

Date/timePositionNaut miles runAvg speedWind from/ knotsBaromVisibWave heightAir tempDewpointWater temp
2015-May-20 15:33N 22°53' E 119°55'9 9.1
2015-May-20 14:32N 22°47' E 120°02'9 8.8
2015-May-20 13:33N 22°41' E 120°09'9 7.6
2015-May-20 12:23N 22°36' E 120°17'1 1.5
2015-May-20 11:33N 22°35' E 120°18'0 0.0
2015-May-19 19:28N 22°35' E 120°18'4 4.6
2015-May-19 18:33N 22°36' E 120°13'1 0.5
2015-May-19 17:30N 22°36' E 120°14'0 0.0
2015-May-19 16:30N 22°36' E 120°14'0 0.0
2015-May-19 15:30N 22°36' E 120°14'0 0.0
2015-May-19 14:30N 22°36' E 120°14'0 0.1
2015-May-19 13:30N 22°36' E 120°14'0 0.0
2015-May-19 12:30N 22°36' E 120°14'0 0.0
2015-May-19 11:33N 22°36' E 120°14'3 3.2
2015-May-19 10:33N 22°38' E 120°11'1312.7
2015-May-19 09:33N 22°47' E 120°02'  
2015-May-14 03:08N 34°51' E 139°19'6 9.2
2015-May-14 02:31N 34°54' E 139°24'9 9.3
2015-May-14 01:33N 34°60' E 139°33'1010.3
2015-May-14 00:33N 35°05' E 139°44'1110.7
2015-May-13 23:33N 35°16' E 139°46'1010.1
2015-May-13 22:33N 35°26' E 139°44'6 5.7
2015-May-13 21:33N 35°31' E 139°46'0 0.0
2015-May-13 20:27N 35°31' E 139°46'0 0.0
2015-May-13 19:33N 35°31' E 139°46'0 0.0
2015-May-13 18:33N 35°31' E 139°46'0 0.0
2015-May-13 17:33N 35°31' E 139°46'0 0.0
2015-May-13 16:33N 35°31' E 139°46'0 0.0
2015-May-13 15:33N 35°31' E 139°46'0 0.0
2015-May-13 14:33N 35°31' E 139°46'0 0.0
2015-May-13 01:04N 35°31' E 139°46'1 1.6
2015-May-13 00:34N 35°30' E 139°45'3 2.8
2015-May-12 23:31N 35°28' E 139°44'0 0.1
2015-May-12 22:33N 35°28' E 139°44'0 0.0
2015-May-12 21:33N 35°28' E 139°44'0 0.0
2015-May-12 20:34N 35°28' E 139°44'0 0.2
2015-May-12 19:33N 35°28' E 139°44'0 0.2
2015-May-12 18:34N 35°28' E 139°44'0 0.2
2015-May-12 17:33N 35°28' E 139°44'2 2.4
2015-May-12 16:33N 35°28' E 139°47'1 1.2
2015-May-12 15:33N 35°27' E 139°46'2 1.5
2015-May-12 14:33N 35°28' E 139°44'0 0.1
2015-May-12 13:33N 35°28' E 139°44'0 0.0
2015-May-12 12:33N 35°28' E 139°44'0 0.0
2015-May-12 11:34N 35°28' E 139°44'0 0.0
2015-May-12 10:33N 35°28' E 139°44'0 0.0
2015-May-12 09:33N 35°28' E 139°44'0 0.0
2015-May-12 08:33N 35°28' E 139°44'0 0.0
2015-May-12 07:33N 35°28' E 139°44'0 0.0
2015-May-12 06:33N 35°28' E 139°44'0 0.0
2015-May-12 05:33N 35°28' E 139°44'0 0.0
2015-May-12 04:33N 35°28' E 139°44'0 0.0
2015-May-12 03:33N 35°28' E 139°44'0 0.0
2015-May-12 02:33N 35°28' E 139°44'0 0.0
2015-May-12 01:33N 35°28' E 139°44'0 0.0
2015-May-12 00:31N 35°28' E 139°44'0 0.0
2015-May-11 23:33N 35°28' E 139°44'2 2.2
2015-May-11 22:33N 35°27' E 139°46'1110.7
2015-May-11 21:33N 35°16' E 139°46'8 8.0
2015-May-11 20:33N 35°08' E 139°46'6 5.7
2015-May-11 19:33N 35°03' E 139°43'6 5.7
2015-May-11 18:33N 34°58' E 139°41'6 5.5
2015-May-11 17:30N 34°52' E 139°38'5 5.4
2015-May-11 16:32N 34°47' E 139°36'  

Dump ship's entire track history